Time;durP1;ratioP1;P1;durP2;ratioP2;P2;SDS_P1;SDS_P2;PMS_P1;PMS_P2;Temp;Humidity;BMP_temperature;BMP_pressure;BME280_temperature;BME280_humidity;BME280_pressure;Samples;Min_cycle;Max_cycle;Signal;HPM_P1;HPM_P2
2023/04/06 00:01:37;;;;;;;10.23;6.43;;;11.10;40.40;;;;;;6370385;22;20072;-79
2023/04/06 00:04:03;;;;;;;9.25;5.88;;;11.10;40.60;;;;;;6369581;22;20006;-79
2023/04/06 00:06:28;;;;;;;10.60;6.60;;;11.10;41.20;;;;;;6370763;22;20009;-79
2023/04/06 00:08:55;;;;;;;11.77;6.68;;;11.10;41.60;;;;;;6371446;22;20376;-79
2023/04/06 00:11:21;;;;;;;9.23;5.45;;;11.10;41.40;;;;;;6370244;22;20007;-79
2023/04/06 00:13:47;;;;;;;9.52;5.88;;;11.20;41.00;;;;;;6369897;22;20147;-79
2023/04/06 00:16:12;;;;;;;9.50;6.30;;;11.10;40.80;;;;;;6370700;22;20002;-80
2023/04/06 00:18:39;;;;;;;8.52;6.25;;;11.20;40.60;;;;;;6371176;22;20014;-80
2023/04/06 00:21:05;;;;;;;12.13;6.50;;;11.20;40.20;;;;;;6370403;22;20004;-80
2023/04/06 00:23:31;;;;;;;8.88;6.20;;;11.20;40.10;;;;;;6370827;22;20411;-80
2023/04/06 00:25:57;;;;;;;10.07;5.82;;;11.20;40.00;;;;;;6370211;22;19999;-80
2023/04/06 00:28:25;;;;;;;11.80;6.95;;;11.20;40.00;;;;;;6370008;22;20481;-80
2023/04/06 00:30:52;;;;;;;8.10;5.82;;;11.20;39.90;;;;;;6370658;22;20001;-80
2023/04/06 00:33:19;;;;;;;9.80;6.32;;;11.20;40.10;;;;;;6370162;22;20074;-80
2023/04/06 00:35:45;;;;;;;9.00;6.15;;;11.10;40.00;;;;;;6370448;22;20002;-80
2023/04/06 00:38:12;;;;;;;8.13;5.53;;;11.10;39.90;;;;;;6369344;22;20031;-80
2023/04/06 00:40:39;;;;;;;9.07;5.90;;;11.20;40.00;;;;;;6370536;22;20420;-80
2023/04/06 00:43:05;;;;;;;11.35;6.57;;;11.10;40.10;;;;;;6370472;22;20006;-80
2023/04/06 00:45:32;;;;;;;10.35;5.78;;;11.10;40.10;;;;;;6370341;22;20010;-80
2023/04/06 00:47:58;;;;;;;9.30;5.50;;;11.10;40.10;;;;;;6370330;22;20078;-80
2023/04/06 00:50:24;;;;;;;9.35;6.05;;;11.10;40.00;;;;;;6369332;22;20036;-79
2023/04/06 00:52:50;;;;;;;8.60;5.07;;;11.10;40.00;;;;;;6370687;22;20083;-79
2023/04/06 00:55:16;;;;;;;9.45;5.60;;;11.10;40.00;;;;;;6370143;22;20420;-79
2023/04/06 00:57:42;;;;;;;6.70;4.75;;;11.10;40.10;;;;;;6370385;22;19999;-79
2023/04/06 01:00:09;;;;;;;11.48;6.05;;;11.10;40.20;;;;;;6369360;22;20002;-79
2023/04/06 01:02:35;;;;;;;12.20;5.93;;;11.10;39.80;;;;;;6342140;22;20085;-79
2023/04/06 01:05:01;;;;;;;10.93;6.82;;;11.10;39.80;;;;;;6370195;22;20052;-79
2023/04/06 01:07:27;;;;;;;9.13;6.30;;;11.10;40.10;;;;;;6370092;22;20380;-78
2023/04/06 01:09:54;;;;;;;9.80;6.07;;;11.10;40.00;;;;;;6369623;22;20073;-78
2023/04/06 01:12:20;;;;;;;7.53;5.68;;;11.00;40.20;;;;;;6370061;22;20075;-78
2023/04/06 01:14:46;;;;;;;7.40;5.03;;;10.90;40.10;;;;;;6369842;22;20412;-79
2023/04/06 01:17:11;;;;;;;14.73;5.20;;;10.90;40.50;;;;;;6370173;22;20054;-79
2023/04/06 01:19:37;;;;;;;7.80;5.25;;;10.80;40.40;;;;;;6370384;22;20458;-80
2023/04/06 01:22:03;;;;;;;8.32;5.00;;;10.80;40.40;;;;;;6369785;22;20022;-79
2023/04/06 01:24:29;;;;;;;7.63;4.80;;;10.70;40.40;;;;;;6369481;22;20091;-80
2023/04/06 01:26:56;;;;;;;6.85;4.82;;;10.70;40.70;;;;;;6369378;22;19994;-79
2023/04/06 01:29:22;;;;;;;7.07;4.95;;;10.60;40.80;;;;;;6369490;22;20093;-79
2023/04/06 01:31:47;;;;;;;8.15;5.20;;;10.60;41.00;;;;;;6370074;22;20095;-80
2023/04/06 01:34:13;;;;;;;9.10;5.03;;;10.50;41.00;;;;;;6369324;22;20013;-80
2023/04/06 01:36:39;;;;;;;7.10;4.47;;;10.50;41.00;;;;;;6369869;22;20017;-80
2023/04/06 01:39:05;;;;;;;6.07;4.40;;;10.40;41.10;;;;;;6369765;22;20003;-79
2023/04/06 01:41:30;;;;;;;7.63;4.82;;;10.40;41.30;;;;;;6369761;22;19998;-79
2023/04/06 01:43:56;;;;;;;7.45;4.95;;;10.40;41.70;;;;;;6369063;22;20424;-79
2023/04/06 01:46:22;;;;;;;6.55;4.43;;;10.40;41.80;;;;;;6341467;22;20009;-79
2023/04/06 01:48:48;;;;;;;6.78;4.18;;;;;;;;;;6369747;22;20001;-80
2023/04/06 01:51:15;;;;;;;7.85;4.95;;;;;;;;;;6369562;22;20397;-80
2023/04/06 01:53:41;;;;;;;8.63;5.00;;;10.50;42.10;;;;;;6370116;22;19999;-80
2023/04/06 01:56:06;;;;;;;6.18;3.85;;;10.40;42.10;;;;;;6369312;22;20051;-80
2023/04/06 01:58:32;;;;;;;6.85;3.92;;;10.40;42.60;;;;;;6369914;22;20058;-80
2023/04/06 02:00:58;;;;;;;8.90;4.40;;;10.40;42.50;;;;;;6369583;22;20006;-79
2023/04/06 02:03:23;;;;;;;8.50;4.30;;;10.40;42.50;;;;;;6369172;22;20476;-80
2023/04/06 02:05:49;;;;;;;8.85;3.85;;;10.30;42.40;;;;;;6369624;22;20328;-79
2023/04/06 02:08:15;;;;;;;5.95;4.10;;;10.30;42.40;;;;;;6368846;22;20008;-79
2023/04/06 02:10:41;;;;;;;6.35;3.72;;;10.30;42.50;;;;;;6369520;22;20051;-79
2023/04/06 02:13:06;;;;;;;5.18;3.60;;;10.30;42.50;;;;;;6368599;22;20041;-79
2023/04/06 02:15:32;;;;;;;7.32;3.70;;;10.30;42.70;;;;;;6369142;22;20139;-80
2023/04/06 02:17:59;;;;;;;4.53;3.22;;;;;;;;;;6369857;22;19998;-80
2023/04/06 02:20:25;;;;;;;5.53;3.50;;;10.30;42.80;;;;;;6368963;22;20006;-78
2023/04/06 02:22:51;;;;;;;4.93;3.33;;;10.30;43.20;;;;;;6369608;22;20055;-78
2023/04/06 02:25:16;;;;;;;7.10;4.05;;;10.30;42.90;;;;;;6368642;22;20076;-79
2023/04/06 02:27:43;;;;;;;6.07;3.70;;;;;;;;;;6369969;22;20018;-80
2023/04/06 02:30:09;;;;;;;7.80;4.75;;;10.40;43.10;;;;;;6368660;22;20074;-80
2023/04/06 02:32:34;;;;;;;8.60;4.20;;;10.40;43.00;;;;;;6369511;22;20376;-79
2023/04/06 02:35:00;;;;;;;5.68;3.70;;;10.30;43.10;;;;;;6342036;22;20002;-79
2023/04/06 02:37:26;;;;;;;8.55;4.40;;;10.30;43.30;;;;;;6368293;22;19999;-79
2023/04/06 02:39:52;;;;;;;5.80;4.10;;;10.30;43.30;;;;;;6368550;22;19998;-79
2023/04/06 02:42:17;;;;;;;7.93;4.10;;;10.30;43.40;;;;;;6369082;22;20466;-79
2023/04/06 02:44:44;;;;;;;5.90;4.00;;;10.30;43.50;;;;;;6368589;22;20002;-78
2023/04/06 02:47:10;;;;;;;9.95;4.38;;;10.40;43.60;;;;;;6368559;22;20052;-78
2023/04/06 02:49:36;;;;;;;13.20;4.07;;;10.40;43.70;;;;;;6368424;22;20022;-77
2023/04/06 02:52:02;;;;;;;9.45;4.68;;;10.40;44.00;;;;;;6368990;22;19995;-76
2023/04/06 02:54:28;;;;;;;6.85;4.22;;;10.40;44.20;;;;;;6368507;22;20013;-76
2023/04/06 02:56:54;;;;;;;6.60;4.18;;;10.30;44.20;;;;;;6367981;22;20404;-76
2023/04/06 02:59:20;;;;;;;7.35;4.57;;;10.30;44.70;;;;;;6368300;22;19998;-77
2023/04/06 03:01:45;;;;;;;8.85;4.70;;;10.30;44.50;;;;;;6368827;22;20093;-76
2023/04/06 03:04:13;;;;;;;9.43;4.90;;;10.30;44.80;;;;;;6367951;22;20002;-77
2023/04/06 03:06:39;;;;;;;8.10;4.50;;;10.30;44.90;;;;;;6369320;22;20009;-76
2023/04/06 03:09:06;;;;;;;8.00;4.38;;;10.30;45.00;;;;;;6368512;22;20065;-76
2023/04/06 03:11:31;;;;;;;8.15;4.20;;;10.20;45.10;;;;;;6369124;22;20328;-76
2023/04/06 03:13:57;;;;;;;11.43;4.70;;;10.20;45.30;;;;;;6368988;22;20014;-77
2023/04/06 03:16:23;;;;;;;8.23;4.30;;;10.30;45.30;;;;;;6368143;22;20209;-76
2023/04/06 03:18:48;;;;;;;7.03;4.18;;;10.20;45.60;;;;;;6368822;22;20419;-76
2023/04/06 03:21:19;;;;;;;8.88;5.22;;;10.20;45.80;;;;;;6367821;22;20009;-76
2023/04/06 03:23:44;;;;;;;10.15;5.18;;;10.10;45.70;;;;;;6369263;22;20409;-76
2023/04/06 03:26:10;;;;;;;6.30;4.35;;;10.00;45.60;;;;;;6368622;22;20003;-76
2023/04/06 03:28:36;;;;;;;6.90;4.85;;;9.90;45.90;;;;;;6368702;22;20009;-76
2023/04/06 03:31:01;;;;;;;5.90;4.15;;;9.80;45.90;;;;;;6368446;22;20005;-77
2023/04/06 03:33:27;;;;;;;7.25;4.40;;;9.80;46.30;;;;;;6368021;22;20014;-76
2023/04/06 03:35:53;;;;;;;11.18;4.75;;;;;;;;;;6368809;22;20005;-76
2023/04/06 03:38:19;;;;;;;8.18;4.75;;;9.70;46.30;;;;;;6368315;22;20007;-76
2023/04/06 03:40:45;;;;;;;8.55;4.28;;;9.60;46.10;;;;;;6368726;22;20028;-76
2023/04/06 03:43:11;;;;;;;6.57;4.28;;;9.70;46.20;;;;;;6367947;22;20005;-77
2023/04/06 03:45:37;;;;;;;7.85;4.60;;;9.70;45.90;;;;;;6367849;22;20006;-76
2023/04/06 03:48:03;;;;;;;7.55;4.82;;;9.70;45.90;;;;;;6368781;22;20002;-76
2023/04/06 03:50:29;;;;;;;6.90;4.25;;;9.70;45.60;;;;;;6368586;22;20504;-76
2023/04/06 03:52:55;;;;;;;8.50;4.22;;;9.70;45.50;;;;;;6368874;22;20079;-76
2023/04/06 03:55:20;;;;;;;7.70;5.00;;;9.60;45.60;;;;;;6368770;22;20055;-76
2023/04/06 03:57:46;;;;;;;7.90;4.55;;;9.70;45.60;;;;;;6367971;22;20007;-76
2023/04/06 04:00:12;;;;;;;6.53;3.83;;;;;;;;;;6368629;22;20006;-75
2023/04/06 04:02:39;;;;;;;7.53;3.88;;;;;;;;;;6368580;22;20009;-75
2023/04/06 04:05:05;;;;;;;9.05;4.88;;;;;;;;;;6367816;22;20006;-75
2023/04/06 04:07:31;;;;;;;7.97;4.07;;;9.60;45.80;;;;;;6368104;22;20003;-76
2023/04/06 04:09:56;;;;;;;6.70;4.32;;;9.60;45.80;;;;;;6368991;22;20039;-75
2023/04/06 04:12:22;;;;;;;7.18;4.07;;;9.50;45.90;;;;;;6368283;22;20014;-76
2023/04/06 04:14:48;;;;;;;6.65;4.25;;;9.50;45.90;;;;;;6368975;22;20036;-77
2023/04/06 04:17:13;;;;;;;6.95;3.90;;;9.50;45.90;;;;;;6368490;22;20055;-76
2023/04/06 04:19:39;;;;;;;6.10;3.53;;;9.50;46.40;;;;;;6368488;22;20004;-76
2023/04/06 04:22:06;;;;;;;8.77;4.13;;;9.50;46.00;;;;;;6367866;22;20052;-76
2023/04/06 04:24:32;;;;;;;6.68;3.88;;;9.50;46.10;;;;;;6368411;22;19998;-77
2023/04/06 04:26:58;;;;;;;12.25;3.97;;;9.40;45.80;;;;;;6368973;22;20040;-77
2023/04/06 04:29:23;;;;;;;5.95;3.88;;;9.40;45.90;;;;;;6367950;22;19999;-77
2023/04/06 04:31:50;;;;;;;6.20;3.78;;;9.50;45.90;;;;;;6369331;22;20024;-76
2023/04/06 04:34:15;;;;;;;5.82;3.20;;;9.50;45.90;;;;;;6368524;22;20316;-77
2023/04/06 04:36:44;;;;;;;5.25;3.28;;;9.60;45.90;;;;;;6370504;22;19986;-77
2023/04/06 04:39:10;;;;;;;7.55;3.90;;;9.60;45.70;;;;;;6370321;22;20355;-77
2023/04/06 04:41:36;;;;;;;9.00;4.47;;;9.60;45.80;;;;;;6370229;22;19994;-77
2023/04/06 04:44:02;;;;;;;5.95;3.60;;;9.60;45.70;;;;;;6370044;22;20119;-77
2023/04/06 04:46:28;;;;;;;4.97;4.00;;;9.70;45.80;;;;;;6370381;22;20026;-77
2023/04/06 04:48:53;;;;;;;5.25;3.67;;;9.70;45.80;;;;;;6370383;22;19995;-77
2023/04/06 04:51:22;;;;;;;6.22;3.90;;;9.70;45.60;;;;;;6369904;22;20002;-77
2023/04/06 04:53:47;;;;;;;7.05;3.90;;;9.60;45.50;;;;;;6368935;22;20053;-77
2023/04/06 04:56:13;;;;;;;6.75;3.88;;;9.70;45.30;;;;;;6369169;22;20313;-77
2023/04/06 04:58:39;;;;;;;5.80;4.15;;;9.70;45.20;;;;;;6370434;22;19998;-78
2023/04/06 05:01:04;;;;;;;5.93;3.72;;;9.70;45.20;;;;;;6369903;22;20439;-79
2023/04/06 05:03:33;;;;;;;10.18;4.45;;;9.70;45.20;;;;;;6370376;22;20029;-79
2023/04/06 05:05:58;;;;;;;7.00;3.80;;;9.70;45.10;;;;;;6369432;22;20002;-79
2023/04/06 05:08:24;;;;;;;7.00;3.88;;;9.70;45.60;;;;;;6369332;22;20002;-79
2023/04/06 05:10:50;;;;;;;6.75;4.03;;;9.70;45.60;;;;;;6342759;22;20010;-80
2023/04/06 05:13:16;;;;;;;7.18;4.05;;;9.70;45.60;;;;;;6369619;22;20006;-80
2023/04/06 05:15:42;;;;;;;5.70;3.70;;;9.70;45.50;;;;;;6370490;22;20002;-80
2023/04/06 05:18:08;;;;;;;7.55;4.00;;;9.70;45.50;;;;;;6369381;22;20073;-79
2023/04/06 05:20:35;;;;;;;6.95;3.83;;;9.70;45.20;;;;;;6369961;22;19999;-79
2023/04/06 05:23:01;;;;;;;6.28;3.63;;;9.80;45.70;;;;;;6370250;22;20026;-79
2023/04/06 05:25:27;;;;;;;6.85;3.65;;;9.80;45.30;;;;;;6370576;22;19998;-79
2023/04/06 05:27:53;;;;;;;6.47;3.30;;;9.70;45.70;;;;;;6370624;22;20317;-78
2023/04/06 05:30:20;;;;;;;7.30;3.70;;;9.80;45.30;;;;;;6369494;22;19999;-78
2023/04/06 05:32:46;;;;;;;6.38;3.38;;;9.80;45.40;;;;;;6341848;22;20033;-77
2023/04/06 05:35:12;;;;;;;5.57;3.45;;;9.70;45.30;;;;;;6369146;22;20005;-77
2023/04/06 05:37:38;;;;;;;10.63;3.40;;;9.80;45.80;;;;;;6369959;22;20008;-76
2023/04/06 05:40:05;;;;;;;4.78;3.35;;;9.80;45.60;;;;;;6366946;22;20030;-77
2023/04/06 05:42:44;;;;;;;8.00;4.15;;;9.80;45.70;;;;;;6365657;22;20077;-77
2023/04/06 05:45:16;;;;;;;5.78;3.38;;;9.80;45.60;;;;;;6368809;22;20009;-80
2023/04/06 05:47:43;;;;;;;6.45;3.88;;;9.80;45.90;;;;;;6369405;22;20432;-79
2023/04/06 05:50:09;;;;;;;5.55;3.33;;;9.90;45.60;;;;;;6368535;22;20073;-79
2023/04/06 05:52:35;;;;;;;5.93;3.70;;;9.90;46.00;;;;;;6369774;22;20006;-80
2023/04/06 05:55:00;;;;;;;6.97;3.53;;;9.80;45.70;;;;;;6340997;22;20006;-78
2023/04/06 05:57:26;;;;;;;5.88;4.00;;;9.80;46.10;;;;;;6370426;22;20037;-80
2023/04/06 05:59:52;;;;;;;7.35;3.70;;;9.90;46.20;;;;;;6369801;22;20308;-82
2023/04/06 06:02:17;;;;;;;8.57;3.78;;;9.90;46.40;;;;;;6369860;22;19999;-81
2023/04/06 06:04:43;;;;;;;6.95;3.88;;;9.90;46.40;;;;;;6369026;22;20590;-81
2023/04/06 06:07:10;;;;;;;5.53;3.67;;;10.00;46.30;;;;;;6368584;22;19999;-81
2023/04/06 06:09:36;;;;;;;7.28;3.45;;;10.00;46.10;;;;;;6342466;22;20014;-81
2023/04/06 06:12:02;;;;;;;8.48;3.63;;;10.00;46.50;;;;;;6370154;22;19995;-81
2023/04/06 06:14:30;;;;;;;6.10;3.53;;;10.00;46.60;;;;;;6370317;22;20009;-81
2023/04/06 06:16:56;;;;;;;6.65;3.63;;;10.10;46.30;;;;;;6369674;22;20408;-82
2023/04/06 06:19:22;;;;;;;6.00;3.45;;;;;;;;;;6341405;22;20522;-79
2023/04/06 06:21:48;;;;;;;7.15;3.08;;;10.20;46.10;;;;;;6369954;22;20037;-79
2023/04/06 06:24:14;;;;;;;9.27;3.38;;;10.20;46.10;;;;;;6341264;22;20060;-76
2023/04/06 06:26:39;;;;;;;5.40;3.13;;;10.20;46.30;;;;;;6369333;22;20065;-80
2023/04/06 06:29:07;;;;;;;7.55;3.42;;;10.30;46.60;;;;;;6369410;22;19994;-81
2023/04/06 06:31:35;;;;;;;5.60;3.20;;;;;;;;;;6371788;22;20005;-82
2023/04/06 06:34:01;;;;;;;7.72;3.30;;;10.30;46.40;;;;;;6371366;22;20365;-80
2023/04/06 06:36:27;;;;;;;7.50;3.15;;;10.30;46.80;;;;;;6373040;22;20075;-81
2023/04/06 06:38:53;;;;;;;7.45;3.67;;;10.40;46.70;;;;;;6370847;22;19999;-82
2023/04/06 06:41:19;;;;;;;6.57;3.13;;;10.40;46.70;;;;;;6368593;22;20006;-78
2023/04/06 06:43:45;;;;;;;4.15;2.97;;;10.50;46.20;;;;;;6369587;22;20075;-76
2023/04/06 06:46:10;;;;;;;5.97;2.90;;;10.40;46.50;;;;;;6367196;22;20009;-76
2023/04/06 06:48:36;;;;;;;6.85;3.47;;;10.50;46.20;;;;;;6369831;22;20073;-77
2023/04/06 06:51:02;;;;;;;6.43;3.35;;;10.60;45.50;;;;;;6369143;22;20002;-82
2023/04/06 06:53:28;;;;;;;4.72;3.25;;;;;;;;;;6368371;22;20342;-86
2023/04/06 06:55:54;;;;;;;5.00;2.95;;;10.70;45.40;;;;;;6370165;22;19998;-84
2023/04/06 06:58:20;;;;;;;5.32;2.63;;;10.70;45.80;;;;;;6370188;22;20055;-83
2023/04/06 07:00:46;;;;;;;4.30;2.90;;;10.80;45.60;;;;;;6370662;22;19998;-85
2023/04/06 07:03:12;;;;;;;17.35;3.58;;;10.90;45.50;;;;;;6370321;22;20003;-84
2023/04/06 07:05:38;;;;;;;8.35;2.65;;;11.10;48.30;;;;;;6370051;22;20447;-81
2023/04/06 07:08:04;;;;;;;5.60;2.78;;;11.20;48.40;;;;;;6370284;22;19994;-81
2023/04/06 07:10:30;;;;;;;7.03;2.75;;;11.20;47.00;;;;;;6369078;22;20059;-81
2023/04/06 07:12:56;;;;;;;5.03;2.60;;;11.30;46.60;;;;;;6366372;22;20014;-80
2023/04/06 07:15:21;;;;;;;5.90;2.58;;;11.30;46.20;;;;;;6368526;22;19998;-78
2023/04/06 07:17:47;;;;;;;5.43;2.58;;;11.30;46.40;;;;;;6369844;22;20003;-78
2023/04/06 07:20:13;;;;;;;4.00;2.25;;;11.40;46.60;;;;;;6340953;22;20037;-78
2023/04/06 07:22:40;;;;;;;4.05;2.47;;;11.40;47.00;;;;;;6370011;22;19998;-78
2023/04/06 07:25:06;;;;;;;4.20;2.72;;;11.50;46.70;;;;;;6368893;22;20005;-78
2023/04/06 07:27:32;;;;;;;4.60;2.45;;;11.50;47.10;;;;;;6370431;22;19994;-79
2023/04/06 07:29:57;;;;;;;6.68;2.90;;;11.60;46.90;;;;;;6342711;22;20002;-80
2023/04/06 07:32:23;;;;;;;6.20;2.63;;;11.60;47.70;;;;;;6370311;22;20040;-79
2023/04/06 07:34:49;;;;;;;4.78;2.92;;;11.70;47.60;;;;;;6369697;22;20094;-79
2023/04/06 07:37:15;;;;;;;3.55;2.30;;;11.80;47.70;;;;;;6368905;22;20073;-79
2023/04/06 07:39:41;;;;;;;5.18;3.08;;;11.90;48.10;;;;;;6368356;22;20067;-79
2023/04/06 07:42:06;;;;;;;7.05;3.05;;;12.00;47.70;;;;;;6369413;22;20002;-80
2023/04/06 07:44:32;;;;;;;4.60;2.60;;;12.00;48.20;;;;;;6370080;22;19998;-80
2023/04/06 07:46:58;;;;;;;7.72;2.78;;;12.00;48.30;;;;;;6370109;22;20373;-78
2023/04/06 07:49:24;;;;;;;5.45;3.15;;;12.10;47.90;;;;;;6370422;22;20047;-78
2023/04/06 07:51:49;;;;;;;5.10;2.38;;;12.20;48.80;;;;;;6369955;22;20073;-79
2023/04/06 07:54:15;;;;;;;5.60;2.72;;;12.20;48.50;;;;;;6370537;22;20469;-80
2023/04/06 07:56:41;;;;;;;8.48;2.40;;;12.30;48.80;;;;;;6370040;22;20423;-80
2023/04/06 07:59:06;;;;;;;5.78;2.75;;;12.50;48.00;;;;;;6370028;22;20047;-77
2023/04/06 08:01:32;;;;;;;3.75;2.28;;;12.40;47.90;;;;;;6369621;22;19994;-77
2023/04/06 08:03:58;;;;;;;5.28;2.70;;;12.60;48.50;;;;;;6369702;22;20033;-79
2023/04/06 08:06:25;;;;;;;5.78;2.53;;;12.60;47.80;;;;;;6371671;22;20055;-79
2023/04/06 08:08:50;;;;;;;5.40;2.40;;;12.70;47.80;;;;;;6372319;22;20422;-79
2023/04/06 08:11:16;;;;;;;4.82;2.55;;;12.70;48.10;;;;;;6372301;22;20002;-79
2023/04/06 08:13:42;;;;;;;5.28;2.55;;;12.70;48.10;;;;;;6371791;22;20007;-79
2023/04/06 08:16:08;;;;;;;4.22;2.50;;;;;;;;;;6372480;22;19998;-79
2023/04/06 08:18:33;;;;;;;3.22;2.20;;;12.80;47.40;;;;;;6372379;22;20029;-79
2023/04/06 08:20:59;;;;;;;2.97;2.28;;;12.80;48.00;;;;;;6372308;22;20005;-79
2023/04/06 08:23:25;;;;;;;3.67;2.22;;;13.00;48.40;;;;;;6372298;22;19998;-78
2023/04/06 08:25:53;;;;;;;5.25;2.50;;;13.10;47.30;;;;;;6371946;22;20002;-78
2023/04/06 08:28:20;;;;;;;3.85;2.10;;;13.20;47.10;;;;;;6372323;22;20002;-78
2023/04/06 08:30:45;;;;;;;4.05;2.05;;;13.30;46.70;;;;;;6371698;22;19994;-78
2023/04/06 08:33:11;;;;;;;3.83;2.30;;;13.30;46.90;;;;;;6372005;22;20048;-79
2023/04/06 08:35:37;;;;;;;5.30;2.33;;;13.40;46.10;;;;;;6372230;22;20029;-79
2023/04/06 08:38:03;;;;;;;5.60;2.88;;;13.40;46.50;;;;;;6371805;22;19998;-78
2023/04/06 08:40:29;;;;;;;3.20;2.33;;;13.50;46.20;;;;;;6372370;22;20115;-80
2023/04/06 08:42:58;;;;;;;5.55;2.08;;;13.60;46.00;;;;;;6372299;22;19998;-80
2023/04/06 08:45:23;;;;;;;4.80;2.40;;;13.70;45.80;;;;;;6372036;22;20087;-80
2023/04/06 08:47:51;;;;;;;3.03;1.90;;;13.80;45.50;;;;;;6371555;22;20420;-79
2023/04/06 08:50:18;;;;;;;3.38;2.13;;;13.80;46.00;;;;;;6371782;22;19994;-78
2023/04/06 08:52:44;;;;;;;5.40;2.67;;;;;;;;;;6372035;22;20408;-78
2023/04/06 08:55:10;;;;;;;3.58;2.42;;;14.10;45.90;;;;;;6371853;22;20124;-78
2023/04/06 08:57:37;;;;;;;6.15;2.42;;;14.30;46.20;;;;;;6371324;22;20428;-78
2023/04/06 09:00:04;;;;;;;6.50;2.63;;;14.40;46.10;;;;;;6371600;22;20417;-80
2023/04/06 09:02:30;;;;;;;4.40;2.70;;;14.60;45.90;;;;;;6344203;22;20011;-80
2023/04/06 09:04:56;;;;;;;4.15;2.58;;;14.70;44.60;;;;;;6371801;22;20006;-77
2023/04/06 09:07:22;;;;;;;4.75;2.88;;;14.80;45.20;;;;;;6371689;22;20002;-79
2023/04/06 09:09:48;;;;;;;6.18;2.83;;;14.90;45.20;;;;;;6371448;22;20009;-78
2023/04/06 09:12:28;;;;;;;5.25;2.40;;;15.00;44.20;;;;;;6343340;22;20013;-78
2023/04/06 09:14:54;;;;;;;;;;;15.10;44.00;;;;;;6369744;22;20006;-78
2023/04/06 09:17:24;;;;;;;3.60;2.50;;;15.10;44.20;;;;;;6361717;22;20224;-79
2023/04/06 09:19:50;;;;;;;3.75;2.65;;;15.20;44.70;;;;;;6363316;22;20017;-78
2023/04/06 09:24:53;;;;;;;4.97;2.60;;;15.40;43.10;;;;;;6402109;22;20450;-77
2023/04/06 09:27:33;;;;;;;5.13;2.60;;;15.50;43.60;;;;;;6401194;22;20319;-78
2023/04/06 09:30:12;;;;;;;9.73;3.10;;;15.60;44.40;;;;;;6401360;22;20009;-78
2023/04/06 09:32:49;;;;;;;6.07;3.25;;;15.80;45.40;;;;;;6402080;22;20046;-78
2023/04/06 09:35:15;;;;;;;3.83;2.92;;;15.90;44.10;;;;;;6373011;22;20063;-78
2023/04/06 09:37:46;;;;;;;6.93;3.00;;;16.00;43.30;;;;;;6374628;22;20058;-78
2023/04/06 09:40:13;;;;;;;5.88;3.03;;;16.10;43.60;;;;;;6373328;22;20012;-78
2023/04/06 09:42:42;;;;;;;5.97;3.10;;;16.30;42.10;;;;;;6401713;22;20030;-78
2023/04/06 09:45:08;;;;;;;6.03;2.97;;;16.30;40.30;;;;;;6401671;22;20458;-79
2023/04/06 09:47:36;;;;;;;7.18;2.85;;;16.30;41.40;;;;;;6401988;22;20656;-75
2023/04/06 09:50:02;;;;;;;10.48;3.42;;;16.40;41.90;;;;;;6402248;22;20028;-81
2023/04/06 09:52:53;;;;;;;4.75;2.67;;;16.60;42.00;;;;;;6401126;22;20001;-82
2023/04/06 09:55:41;;;;;;;4.85;3.25;;;16.90;41.70;;;;;;6371523;22;20122;-82
2023/04/06 09:58:12;;;;;;;7.13;2.70;;;17.00;41.20;;;;;;6400739;22;19998;-82
2023/04/06 10:01:06;;;;;;;5.72;3.03;;;17.30;40.30;;;;;;6373730;22;20416;-82
2023/04/06 10:04:11;;;;;;;3.97;2.90;;;17.30;40.20;;;;;;6380991;22;20384;-77
2023/04/06 10:06:38;;;;;;;3.60;2.47;;;17.40;40.30;;;;;;6401384;22;20002;-77
2023/04/06 10:09:05;;;;;;;6.70;3.30;;;17.50;40.40;;;;;;6402283;22;19994;-77
2023/04/06 10:11:31;;;;;;;5.47;2.80;;;17.60;40.60;;;;;;6402428;22;19998;-77
2023/04/06 10:13:57;;;;;;;3.78;2.50;;;17.70;40.60;;;;;;6402030;22;20000;-77
2023/04/06 10:16:24;;;;;;;4.22;2.30;;;17.80;40.20;;;;;;6401495;22;20077;-77
2023/04/06 10:19:01;;;;;;;3.40;2.40;;;17.90;40.00;;;;;;6373655;22;20335;-78
2023/04/06 10:21:28;;;;;;;5.80;2.92;;;18.10;40.00;;;;;;6402305;22;20468;-77
2023/04/06 10:23:59;;;;;;;3.97;3.03;;;18.20;39.50;;;;;;6407299;22;20089;-83
2023/04/06 10:26:25;;;;;;;3.58;2.50;;;18.30;39.80;;;;;;6413061;22;20035;-83
2023/04/06 10:28:51;;;;;;;5.38;3.00;;;18.50;38.80;;;;;;6417657;22;20404;-83
2023/04/06 10:31:26;;;;;;;4.70;2.85;;;18.50;39.10;;;;;;6417298;22;20080;-82
2023/04/06 10:34:10;;;;;;;5.40;3.30;;;18.40;39.50;;;;;;6409067;22;20450;-83
2023/04/06 10:36:35;;;;;;;4.32;2.40;;;18.40;39.00;;;;;;6419143;22;20075;-82
2023/04/06 10:39:06;;;;;;;10.60;3.30;;;18.50;39.60;;;;;;6419332;22;19998;-82
2023/04/06 10:41:50;;;;;;;7.95;3.83;;;18.70;37.80;;;;;;6407068;22;20070;-82
2023/04/06 10:44:24;;;;;;;4.63;2.72;;;18.70;37.90;;;;;;6402233;22;20001;-82
2023/04/06 10:46:57;;;;;;;5.28;3.60;;;18.70;38.60;;;;;;6402612;22;20068;-82
2023/04/06 10:49:25;;;;;;;7.50;3.10;;;18.80;38.30;;;;;;6401843;22;19998;-82
2023/04/06 10:51:55;;;;;;;8.20;3.17;;;19.00;36.90;;;;;;6402844;22;19998;-82
2023/04/06 10:54:23;;;;;;;6.15;3.60;;;18.90;37.30;;;;;;6402401;22;20029;-82
2023/04/06 10:56:49;;;;;;;8.05;3.17;;;18.90;37.20;;;;;;6402686;22;20043;-82
2023/04/06 10:59:20;;;;;;;7.50;3.60;;;18.90;37.00;;;;;;6401534;22;20006;-82
2023/04/06 11:01:46;;;;;;;4.32;2.63;;;19.00;37.10;;;;;;6402918;22;19994;-83
2023/04/06 11:04:19;;;;;;;5.30;3.15;;;19.20;37.30;;;;;;6404179;22;19998;-84
2023/04/06 11:06:49;;;;;;;7.45;2.75;;;19.30;36.80;;;;;;6406602;22;20002;-83
2023/04/06 11:09:29;;;;;;;6.05;3.38;;;19.50;36.30;;;;;;6406064;22;20001;-81
2023/04/06 11:11:56;;;;;;;5.13;3.08;;;19.50;37.40;;;;;;6404790;22;20016;-78
2023/04/06 11:14:22;;;;;;;274.17;108.15;;;19.60;37.60;;;;;;6403134;22;20017;-78
2023/04/06 11:16:49;;;;;;;36.67;15.60;;;19.70;37.60;;;;;;6403377;22;20021;-77
2023/04/06 11:19:16;;;;;;;8.13;4.40;;;19.90;37.30;;;;;;6403479;22;20009;-77
2023/04/06 11:21:43;;;;;;;80.03;27.58;;;20.30;36.50;;;;;;6401507;22;20027;-77
2023/04/06 11:24:10;;;;;;;46.50;17.45;;;20.30;37.00;;;;;;6403605;22;20005;-77
2023/04/06 11:26:48;;;;;;;9.02;4.55;;;20.50;37.30;;;;;;6403904;22;20002;-79
2023/04/06 11:29:24;;;;;;;4.60;3.28;;;20.80;36.80;;;;;;6372269;22;20073;-75
2023/04/06 11:32:08;;;;;;;5.68;3.13;;;20.90;36.20;;;;;;6373684;22;20006;-78
2023/04/06 11:34:40;;;;;;;4.68;3.03;;;21.50;35.10;;;;;;6373613;22;20025;-78
2023/04/06 11:37:11;;;;;;;6.32;3.90;;;21.70;35.50;;;;;;6400704;22;19998;-79
2023/04/06 11:39:56;;;;;;;6.65;3.22;;;22.80;34.60;;;;;;6399030;22;20051;-78
2023/04/06 11:42:27;;;;;;;10.27;3.50;;;24.10;33.30;;;;;;6404744;22;20086;-79
2023/04/06 11:45:00;;;;;;;5.40;2.65;;;26.00;30.30;;;;;;6377387;22;20001;-77
2023/04/06 11:47:36;;;;;;;4.97;3.33;;;26.60;30.00;;;;;;6401707;22;20024;-78
2023/04/06 11:50:09;;;;;;;7.20;3.17;;;26.90;30.20;;;;;;6404802;22;20023;-79
2023/04/06 11:52:35;;;;;;;4.82;3.13;;;27.50;29.70;;;;;;6405172;22;20029;-77
2023/04/06 11:55:15;;;;;;;6.25;3.10;;;28.00;28.90;;;;;;6376607;22;19998;-77
2023/04/06 11:57:41;;;;;;;4.75;2.97;;;28.10;28.50;;;;;;6406583;22;20002;-77
2023/04/06 12:00:09;;;;;;;30.98;18.60;;;28.20;28.40;;;;;;6408095;22;19994;-79
2023/04/06 12:02:36;;;;;;;16.77;7.57;;;28.30;29.00;;;;;;6408024;22;19994;-78
2023/04/06 12:05:03;;;;;;;5.93;3.70;;;28.50;28.50;;;;;;6406674;22;20006;-76
2023/04/06 12:07:29;;;;;;;3.83;3.38;;;28.60;28.20;;;;;;6407406;22;19998;-77
2023/04/06 12:09:55;;;;;;;7.22;4.43;;;28.60;28.50;;;;;;6407870;22;20001;-83
2023/04/06 12:12:21;;;;;;;8.63;3.78;;;28.50;28.50;;;;;;6407543;22;20424;-79
2023/04/06 12:14:55;;;;;;;6.82;3.58;;;28.20;28.50;;;;;;6404118;22;20059;-85
2023/04/06 12:17:20;;;;;;;6.10;4.07;;;28.00;28.50;;;;;;6405618;22;20022;-84
2023/04/06 12:19:46;;;;;;;6.15;3.60;;;27.90;28.40;;;;;;6376830;22;20135;-87
2023/04/06 12:22:12;;;;;;;7.55;3.75;;;27.80;28.50;;;;;;6400467;22;20002;-79
2023/04/06 12:24:38;;;;;;;5.18;4.25;;;27.80;28.60;;;;;;6400240;22;20006;-79
2023/04/06 12:27:04;;;;;;;5.68;3.58;;;27.80;28.30;;;;;;6400289;22;20301;-79
2023/04/06 12:29:30;;;;;;;5.78;3.45;;;27.90;28.50;;;;;;6400004;22;20003;-79
2023/04/06 12:31:56;;;;;;;11.85;5.70;;;27.90;28.70;;;;;;6399696;22;20296;-80
2023/04/06 12:34:21;;;;;;;46.75;23.52;;;28.00;28.30;;;;;;6370750;22;20002;-79
2023/04/06 12:36:47;;;;;;;8.85;5.10;;;28.20;28.70;;;;;;6401562;22;20022;-79
2023/04/06 12:39:13;;;;;;;7.70;3.65;;;28.40;28.70;;;;;;6400819;22;20264;-79
2023/04/06 12:41:41;;;;;;;6.32;3.90;;;28.70;28.70;;;;;;6400657;22;19994;-80
2023/04/06 12:44:07;;;;;;;5.28;3.97;;;28.90;28.10;;;;;;6399558;22;20003;-79
2023/04/06 12:46:33;;;;;;;6.03;3.80;;;29.10;27.70;;;;;;6399386;22;19998;-79
2023/04/06 12:48:59;;;;;;;6.30;3.90;;;29.10;27.80;;;;;;6400479;22;20005;-79
2023/04/06 12:51:27;;;;;;;7.10;3.72;;;29.20;28.00;;;;;;6372284;22;20005;-79
2023/04/06 12:53:53;;;;;;;4.65;3.13;;;29.20;27.70;;;;;;6401982;22;20347;-80
2023/04/06 12:56:20;;;;;;;5.53;3.60;;;29.30;28.10;;;;;;6400774;22;20422;-79